createdAt,value
2023-09-11T00:00:09.791Z,17.69
2023-09-11T00:03:12.571Z,17.66
2023-09-11T00:06:15.333Z,17.52
2023-09-11T00:09:17.749Z,17.29
2023-09-11T00:12:20.222Z,17.41
2023-09-11T00:15:22.671Z,17.51
2023-09-11T00:18:25.679Z,17.60
2023-09-11T00:21:28.306Z,17.49
2023-09-11T00:24:30.712Z,17.58
2023-09-11T00:27:33.105Z,17.52
2023-09-11T00:30:38.754Z,17.49
2023-09-11T00:33:41.177Z,17.49
2023-09-11T00:36:43.705Z,17.46
2023-09-11T00:39:46.116Z,17.44
2023-09-11T00:42:48.681Z,17.44
2023-09-11T00:45:52.227Z,17.43
2023-09-11T00:48:57.116Z,17.43
2023-09-11T00:52:00.610Z,17.33
2023-09-11T00:55:03.827Z,17.31
2023-09-11T00:58:06.884Z,17.33
2023-09-11T01:01:12.017Z,17.29
2023-09-11T01:04:14.852Z,17.23
2023-09-11T01:07:18.490Z,17.25
2023-09-11T01:10:21.632Z,17.25
2023-09-11T01:13:25.279Z,17.18
2023-09-11T01:16:52.714Z,17.19
2023-09-11T01:20:15.359Z,17.21
2023-09-11T01:23:33.009Z,17.24
2023-09-11T01:26:52.456Z,17.27
2023-09-11T01:29:59.001Z,17.23
2023-09-11T01:33:01.813Z,17.20
2023-09-11T01:36:04.332Z,17.12
2023-09-11T01:39:07.062Z,17.03
2023-09-11T01:42:12.721Z,17.02
2023-09-11T01:45:16.525Z,17.10
2023-09-11T01:48:21.793Z,17.06
2023-09-11T01:51:25.984Z,16.99
2023-09-11T01:54:28.681Z,16.97
2023-09-11T01:57:31.168Z,17.01
2023-09-11T02:00:33.553Z,16.99
2023-09-11T02:03:36.148Z,17.07
2023-09-11T02:06:38.719Z,17.04
2023-09-11T02:09:41.298Z,16.91
2023-09-11T02:12:43.693Z,16.83
2023-09-11T02:15:46.211Z,16.77
2023-09-11T02:18:48.698Z,16.76
2023-09-11T02:21:51.055Z,16.74
2023-09-11T02:24:53.417Z,16.78
2023-09-11T02:27:55.883Z,16.83
2023-09-11T02:30:58.933Z,16.75
2023-09-11T02:34:01.438Z,16.69
2023-09-11T02:37:03.949Z,16.63
2023-09-11T02:40:07.717Z,16.70
2023-09-11T02:43:10.133Z,16.66
2023-09-11T02:46:12.609Z,16.66
2023-09-11T02:49:15.114Z,16.61
2023-09-11T02:52:17.497Z,16.53
2023-09-11T02:55:20.011Z,16.47
2023-09-11T02:58:22.419Z,16.48
2023-09-11T03:01:24.934Z,16.46
2023-09-11T03:04:27.513Z,16.43
2023-09-11T03:07:30.007Z,16.43
2023-09-11T03:10:32.896Z,16.41
2023-09-11T03:13:35.803Z,16.38
2023-09-11T03:16:44.913Z,16.45
2023-09-11T03:19:47.976Z,16.35
2023-09-11T03:22:50.461Z,16.29
2023-09-11T03:25:52.873Z,16.30
2023-09-11T03:28:55.594Z,16.24
2023-09-11T03:32:02.089Z,16.23
2023-09-11T03:35:05.312Z,16.19
2023-09-11T03:38:07.770Z,16.11
2023-09-11T03:41:10.903Z,16.10
2023-09-11T03:44:13.438Z,16.08
2023-09-11T03:47:15.913Z,15.92
2023-09-11T03:50:18.490Z,15.91
2023-09-11T03:53:21.295Z,15.93
2023-09-11T03:56:23.858Z,15.90
2023-09-11T03:59:26.741Z,15.89
2023-09-11T04:02:30.909Z,15.90
2023-09-11T04:05:33.412Z,15.89
2023-09-11T04:08:35.966Z,15.86
2023-09-11T04:11:38.565Z,15.80
2023-09-11T04:14:41.050Z,15.78
2023-09-11T04:17:43.660Z,15.77
2023-09-11T04:20:46.729Z,15.81
2023-09-11T04:23:49.232Z,15.85
2023-09-11T04:26:51.761Z,15.81
2023-09-11T04:29:54.657Z,15.85
2023-09-11T04:32:57.193Z,15.88
2023-09-11T04:36:00.528Z,15.88
2023-09-11T04:39:03.411Z,15.96
2023-09-11T04:42:05.948Z,16.00
2023-09-11T04:45:09.154Z,16.08
2023-09-11T04:48:11.744Z,16.15
2023-09-11T04:51:14.336Z,16.14
2023-09-11T04:54:16.928Z,16.25
2023-09-11T04:57:19.431Z,16.32
2023-09-11T05:00:22.029Z,16.42
2023-09-11T05:03:25.052Z,16.53
2023-09-11T05:06:27.673Z,16.65
2023-09-11T05:09:32.453Z,16.67
2023-09-11T05:12:35.277Z,16.93
2023-09-11T05:15:37.812Z,17.10
2023-09-11T05:18:40.685Z,17.44
2023-09-11T05:21:43.507Z,17.62
2023-09-11T05:24:45.938Z,17.85
2023-09-11T05:27:48.357Z,17.96
2023-09-11T05:30:51.464Z,18.03
2023-09-11T05:33:53.841Z,18.05
2023-09-11T05:36:56.366Z,18.13
2023-09-11T05:39:59.870Z,18.33
2023-09-11T05:43:03.045Z,18.73
2023-09-11T05:46:05.592Z,18.60
2023-09-11T05:49:08.070Z,18.60
2023-09-11T05:52:10.545Z,18.80
2023-09-11T05:55:13.089Z,18.81
2023-09-11T05:58:16.197Z,19.01
2023-09-11T06:01:19.157Z,19.14
2023-09-11T06:04:21.758Z,19.32
2023-09-11T06:07:24.221Z,19.64
2023-09-11T06:10:26.693Z,19.95
2023-09-11T06:13:29.170Z,20.15
2023-09-11T06:16:31.594Z,20.61
2023-09-11T06:19:34.023Z,21.05
2023-09-11T06:22:37.852Z,21.46
2023-09-11T06:25:40.275Z,21.82
2023-09-11T06:28:43.887Z,22.26
2023-09-11T06:31:46.412Z,22.48
2023-09-11T06:34:48.830Z,22.72
2023-09-11T06:37:51.242Z,22.89
2023-09-11T06:40:53.662Z,22.93
2023-09-11T06:43:57.244Z,23.11
2023-09-11T06:46:59.949Z,23.36
2023-09-11T06:50:04.105Z,23.75
2023-09-11T06:53:11.114Z,24.02
2023-09-11T06:56:13.734Z,24.17
2023-09-11T06:59:16.138Z,24.24
2023-09-11T07:02:18.551Z,24.21
2023-09-11T07:05:21.610Z,24.40
2023-09-11T07:08:24.055Z,24.61
2023-09-11T07:11:26.616Z,24.50
2023-09-11T07:14:29.470Z,24.71
2023-09-11T07:17:32.063Z,24.67
2023-09-11T07:20:34.701Z,25.27
2023-09-11T07:23:37.176Z,25.51
2023-09-11T07:26:39.676Z,26.00
2023-09-11T07:29:42.146Z,26.09
2023-09-11T07:32:44.905Z,26.64
2023-09-11T07:35:47.856Z,26.48
2023-09-11T07:38:50.493Z,26.03
2023-09-11T07:41:52.923Z,26.08
2023-09-11T07:44:55.344Z,26.57
2023-09-11T07:47:57.900Z,27.08
2023-09-11T07:51:00.374Z,27.43
2023-09-11T07:54:02.870Z,28.02
2023-09-11T07:57:05.615Z,28.08
2023-09-11T08:00:08.927Z,28.83
2023-09-11T08:03:11.974Z,29.40
2023-09-11T08:06:15.464Z,28.91
2023-09-11T08:09:17.965Z,29.19
2023-09-11T08:12:20.589Z,29.27
2023-09-11T08:15:23.245Z,29.35
2023-09-11T08:18:25.733Z,29.86
2023-09-11T08:21:28.265Z,29.97
2023-09-11T08:24:30.833Z,30.11
2023-09-11T08:27:33.229Z,30.51
2023-09-11T08:30:36.455Z,30.96
2023-09-11T08:33:53.903Z,30.67
2023-09-11T08:36:58.783Z,30.89
2023-09-11T08:40:01.255Z,31.69
2023-09-11T08:43:03.912Z,31.35
2023-09-11T08:46:10.944Z,31.20
2023-09-11T08:49:20.856Z,31.84
2023-09-11T08:52:23.591Z,32.22
2023-09-11T08:55:26.684Z,32.62
2023-09-11T08:58:32.608Z,32.90
2023-09-11T09:01:35.555Z,32.96
2023-09-11T09:04:40.069Z,32.56
2023-09-11T09:07:46.013Z,31.54
2023-09-11T09:10:49.547Z,31.59
2023-09-11T09:13:52.057Z,31.87
2023-09-11T09:16:55.061Z,32.76
2023-09-11T09:19:57.509Z,32.12
2023-09-11T09:23:02.445Z,32.71
2023-09-11T09:26:09.383Z,32.88
2023-09-11T09:29:12.364Z,33.35
2023-09-11T09:32:15.633Z,33.41
2023-09-11T09:35:30.348Z,32.58
2023-09-11T09:38:33.035Z,33.65
2023-09-11T09:41:35.536Z,32.85
2023-09-11T09:44:40.416Z,32.72
2023-09-11T09:47:43.061Z,33.52
2023-09-11T09:51:03.394Z,33.17
2023-09-11T09:54:05.960Z,33.99
2023-09-11T09:57:12.074Z,34.66
2023-09-11T10:00:17.885Z,34.00
2023-09-11T10:03:20.460Z,34.09
2023-09-11T10:06:28.880Z,34.13
2023-09-11T10:09:31.564Z,33.99
2023-09-11T10:12:33.994Z,34.96
2023-09-11T10:15:39.145Z,34.01
2023-09-11T10:18:46.630Z,34.54
2023-09-11T10:21:49.285Z,33.53
2023-09-11T10:24:51.732Z,33.18
2023-09-11T10:27:58.879Z,34.36
2023-09-11T10:31:46.566Z,34.54
2023-09-11T10:34:51.273Z,34.71
2023-09-11T10:37:58.630Z,34.20
2023-09-11T10:41:02.132Z,34.08
2023-09-11T10:44:05.212Z,33.13
2023-09-11T10:47:07.718Z,33.56
2023-09-11T10:50:11.252Z,34.30
2023-09-11T10:53:13.835Z,34.62
2023-09-11T10:56:17.097Z,34.59
2023-09-11T10:59:23.743Z,34.41
2023-09-11T11:02:26.378Z,35.21
2023-09-11T11:05:28.801Z,35.51
2023-09-11T11:08:35.834Z,35.00
2023-09-11T11:11:43.763Z,34.92
2023-09-11T11:15:25.979Z,35.31
2023-09-11T11:18:29.221Z,35.74
2023-09-11T11:21:41.959Z,33.26
2023-09-11T11:24:56.855Z,32.32
2023-09-11T11:28:14.637Z,34.27
2023-09-11T11:31:22.520Z,34.86
2023-09-11T11:34:36.567Z,33.76
2023-09-11T11:37:45.709Z,33.85
2023-09-11T11:40:48.760Z,35.32
2023-09-11T11:43:52.404Z,35.61
2023-09-11T11:46:54.954Z,35.42
2023-09-11T11:49:57.410Z,35.28
2023-09-11T11:52:59.848Z,35.29
2023-09-11T11:56:06.053Z,35.34
2023-09-11T11:59:08.577Z,33.73
2023-09-11T12:02:23.895Z,34.01
2023-09-11T12:05:26.454Z,35.10
2023-09-11T12:08:29.337Z,34.75
2023-09-11T12:11:34.639Z,35.13
2023-09-11T12:14:38.010Z,33.03
2023-09-11T12:17:50.961Z,33.74
2023-09-11T12:20:58.955Z,33.90
2023-09-11T12:24:01.788Z,34.66
2023-09-11T12:27:06.328Z,33.99
2023-09-11T12:30:09.880Z,34.71
2023-09-11T12:33:17.841Z,34.99
2023-09-11T12:36:23.835Z,33.58
2023-09-11T12:39:26.375Z,33.97
2023-09-11T12:42:28.809Z,34.60
2023-09-11T12:45:31.514Z,34.63
2023-09-11T12:48:41.411Z,34.61
2023-09-11T12:51:44.622Z,35.00
2023-09-11T12:54:47.736Z,34.02
2023-09-11T12:57:52.940Z,34.86
2023-09-11T13:00:58.089Z,34.47
2023-09-11T13:04:00.894Z,33.60
2023-09-11T13:07:03.658Z,34.13
2023-09-11T13:10:06.714Z,34.16
2023-09-11T13:13:15.340Z,33.26
2023-09-11T13:16:24.310Z,32.97
2023-09-11T13:19:26.854Z,33.41
2023-09-11T13:22:29.344Z,32.90
2023-09-11T13:25:31.865Z,32.88
2023-09-11T13:28:34.487Z,33.54
2023-09-11T13:31:37.692Z,33.96
2023-09-11T13:34:40.104Z,33.84
2023-09-11T13:37:43.115Z,32.45
2023-09-11T13:40:49.330Z,32.03
2023-09-11T13:43:52.220Z,33.14
2023-09-11T13:46:54.702Z,33.03
2023-09-11T13:49:57.115Z,33.58
2023-09-11T13:52:59.559Z,33.63
2023-09-11T13:56:02.058Z,33.38
2023-09-11T13:59:04.479Z,32.75
2023-09-11T14:02:07.710Z,32.90
2023-09-11T14:05:10.592Z,33.07
2023-09-11T14:08:13.045Z,32.89
2023-09-11T14:11:15.499Z,32.63
2023-09-11T14:14:17.906Z,32.72
2023-09-11T14:17:20.307Z,32.86
2023-09-11T14:20:22.705Z,32.30
2023-09-11T14:23:25.155Z,31.98
2023-09-11T14:26:27.558Z,32.37
2023-09-11T14:29:30.001Z,32.71
2023-09-11T14:32:32.430Z,31.94
2023-09-11T14:35:35.267Z,31.65
2023-09-11T14:38:37.717Z,31.71
2023-09-11T14:41:40.198Z,32.15
2023-09-11T14:44:42.685Z,32.27
2023-09-11T14:47:45.642Z,32.26
2023-09-11T14:50:49.024Z,31.65
2023-09-11T14:53:52.458Z,31.80
2023-09-11T14:56:57.781Z,32.01
2023-09-11T15:00:05.030Z,31.99
2023-09-11T15:03:07.837Z,31.55
2023-09-11T15:06:10.464Z,31.04
2023-09-11T15:09:13.005Z,31.01
2023-09-11T15:12:15.651Z,31.04
2023-09-11T15:15:18.272Z,31.06
2023-09-11T15:18:25.758Z,30.93
2023-09-11T15:21:29.224Z,30.92
2023-09-11T15:24:31.985Z,30.77
2023-09-11T15:27:34.522Z,30.92
2023-09-11T15:30:40.360Z,30.77
2023-09-11T15:33:42.854Z,30.68
2023-09-11T15:36:45.307Z,30.51
2023-09-11T15:39:47.973Z,30.46
2023-09-11T15:42:50.518Z,30.43
2023-09-11T15:45:53.004Z,30.34
2023-09-11T15:48:55.548Z,30.28
2023-09-11T15:52:04.090Z,30.31
2023-09-11T15:55:06.874Z,29.87
2023-09-11T15:58:09.312Z,29.99
2023-09-11T16:01:12.332Z,29.58
2023-09-11T16:04:14.993Z,29.47
2023-09-11T16:07:17.468Z,29.38
2023-09-11T16:10:19.871Z,29.33
2023-09-11T16:13:22.543Z,29.38
2023-09-11T16:16:25.028Z,29.18
2023-09-11T16:19:27.477Z,29.21
2023-09-11T16:22:29.864Z,29.16
2023-09-11T16:25:34.040Z,29.00
2023-09-11T16:28:36.490Z,28.83
2023-09-11T16:31:38.868Z,28.34
2023-09-11T16:34:41.367Z,28.18
2023-09-11T16:37:45.028Z,28.00
2023-09-11T16:40:47.441Z,27.75
2023-09-11T16:43:49.804Z,27.60
2023-09-11T16:46:52.410Z,27.21
2023-09-11T16:49:55.812Z,27.03
2023-09-11T16:52:59.295Z,26.85
2023-09-11T16:56:01.751Z,26.58
2023-09-11T16:59:04.231Z,26.33
2023-09-11T17:02:06.699Z,26.13
2023-09-11T17:05:10.288Z,25.73
2023-09-11T17:08:12.831Z,25.60
2023-09-11T17:11:15.209Z,25.36
2023-09-11T17:14:17.609Z,25.05
2023-09-11T17:17:19.970Z,24.73
2023-09-11T17:20:23.821Z,24.54
2023-09-11T17:23:26.394Z,24.48
2023-09-11T17:26:28.925Z,24.63
2023-09-11T17:29:31.526Z,24.57
2023-09-11T17:32:38.141Z,24.21
2023-09-11T17:35:40.726Z,23.65
2023-09-11T17:38:43.468Z,23.77
2023-09-11T17:41:46.206Z,23.72
2023-09-11T17:44:48.706Z,23.78
2023-09-11T17:47:51.159Z,23.77
2023-09-11T17:50:54.699Z,23.71
2023-09-11T17:53:57.248Z,23.65
2023-09-11T17:56:59.713Z,23.56
2023-09-11T18:00:02.445Z,23.44
2023-09-11T18:03:12.202Z,23.39
2023-09-11T18:06:14.947Z,23.37
2023-09-11T18:09:17.514Z,23.34
2023-09-11T18:12:20.020Z,23.25
2023-09-11T18:15:22.464Z,23.20
2023-09-11T18:18:25.134Z,22.97
2023-09-11T18:21:27.645Z,22.96
2023-09-11T18:24:30.118Z,22.86
2023-09-11T18:27:36.438Z,22.78
2023-09-11T18:30:40.755Z,22.80
2023-09-11T18:33:43.503Z,22.94
2023-09-11T18:36:46.872Z,22.88
2023-09-11T18:39:49.312Z,22.68
2023-09-11T18:42:52.031Z,22.56
2023-09-11T18:45:54.460Z,22.47
2023-09-11T18:48:58.570Z,22.33
2023-09-11T18:52:01.106Z,22.21
2023-09-11T18:55:04.045Z,22.01
2023-09-11T18:58:06.705Z,21.90
2023-09-11T19:01:09.275Z,21.76
2023-09-11T19:04:11.935Z,21.73
2023-09-11T19:07:15.096Z,21.74
2023-09-11T19:10:17.738Z,21.78
2023-09-11T19:13:20.364Z,21.78
2023-09-11T19:16:22.941Z,21.82
2023-09-11T19:19:25.302Z,21.63
2023-09-11T19:22:27.735Z,21.13
2023-09-11T19:25:30.378Z,20.96
2023-09-11T19:28:32.938Z,20.84
2023-09-11T19:31:36.298Z,20.84
2023-09-11T19:34:38.876Z,20.78
2023-09-11T19:37:41.345Z,20.84
2023-09-11T19:40:44.055Z,20.91
2023-09-11T19:43:47.644Z,20.87
2023-09-11T19:46:50.042Z,20.89
2023-09-11T19:49:52.498Z,20.62
2023-09-11T19:52:55.073Z,20.75
2023-09-11T19:55:57.512Z,20.80
2023-09-11T19:59:06.124Z,20.90
2023-09-11T20:02:09.796Z,20.93
2023-09-11T20:05:12.308Z,20.88
2023-09-11T20:08:14.713Z,20.72
2023-09-11T20:11:17.146Z,20.66
2023-09-11T20:14:19.642Z,20.53
2023-09-11T20:17:22.210Z,20.45
2023-09-11T20:20:24.636Z,20.50
2023-09-11T20:23:27.024Z,20.45
2023-09-11T20:26:30.094Z,20.28
2023-09-11T20:29:32.570Z,20.43
2023-09-11T20:32:36.100Z,20.41
2023-09-11T20:35:38.591Z,20.43
2023-09-11T20:38:41.514Z,20.32
2023-09-11T20:41:44.187Z,20.27
2023-09-11T20:44:46.602Z,20.28
2023-09-11T20:47:48.995Z,20.11
2023-09-11T20:50:51.434Z,20.12
2023-09-11T20:53:53.966Z,20.17
2023-09-11T20:56:56.454Z,19.95
2023-09-11T20:59:59.308Z,19.88
2023-09-11T21:03:01.850Z,19.92
2023-09-11T21:06:05.019Z,19.81
2023-09-11T21:09:07.494Z,19.83
2023-09-11T21:12:09.968Z,19.82
2023-09-11T21:15:12.496Z,19.82
2023-09-11T21:18:15.035Z,19.66
2023-09-11T21:21:17.577Z,19.56
2023-09-11T21:24:20.130Z,19.41
2023-09-11T21:27:22.593Z,19.35
2023-09-11T21:30:25.305Z,19.42
2023-09-11T21:33:29.470Z,19.45
2023-09-11T21:36:32.145Z,19.37
2023-09-11T21:39:34.929Z,19.34
2023-09-11T21:42:37.478Z,19.37
2023-09-11T21:45:44.151Z,19.33
2023-09-11T21:48:46.648Z,19.28
2023-09-11T21:51:49.310Z,19.22
2023-09-11T21:54:52.050Z,19.25
2023-09-11T21:57:54.590Z,19.20
2023-09-11T22:00:57.014Z,19.19
2023-09-11T22:03:59.922Z,19.27
2023-09-11T22:07:02.661Z,19.17
2023-09-11T22:10:05.783Z,19.19
2023-09-11T22:13:08.701Z,19.06
2023-09-11T22:16:11.154Z,19.05
2023-09-11T22:19:13.618Z,18.96
2023-09-11T22:22:16.105Z,18.98
2023-09-11T22:25:18.557Z,19.02
2023-09-11T22:28:20.957Z,18.92
2023-09-11T22:31:23.353Z,18.90
2023-09-11T22:34:25.929Z,18.85
2023-09-11T22:37:28.602Z,18.89
2023-09-11T22:40:31.510Z,18.96
2023-09-11T22:43:33.948Z,18.96
2023-09-11T22:46:36.488Z,18.82
2023-09-11T22:49:38.899Z,18.84
2023-09-11T22:52:41.239Z,18.84
2023-09-11T22:55:45.546Z,18.87
2023-09-11T22:58:47.956Z,18.76
2023-09-11T23:01:50.404Z,18.75
2023-09-11T23:04:52.929Z,18.65
2023-09-11T23:07:55.316Z,18.66
2023-09-11T23:10:57.818Z,18.63
2023-09-11T23:14:00.278Z,18.55
2023-09-11T23:17:02.711Z,18.51
2023-09-11T23:20:08.821Z,18.47
2023-09-11T23:23:11.223Z,18.53
2023-09-11T23:26:13.845Z,18.50
2023-09-11T23:29:16.230Z,18.54
2023-09-11T23:32:18.653Z,18.46
2023-09-11T23:35:21.037Z,18.45
2023-09-11T23:38:23.390Z,18.49
2023-09-11T23:41:27.353Z,18.42
2023-09-11T23:44:29.791Z,18.39
2023-09-11T23:47:32.516Z,18.41
2023-09-11T23:50:35.413Z,18.36
2023-09-11T23:53:37.980Z,18.40
2023-09-11T23:56:43.153Z,18.36
2023-09-11T23:59:45.981Z,18.24
